Terminal Aerodrome Forecast
Issued by NWS

Home | Current Version | Previous Version | Text Only | Print | Product List | Glossary On
Versions: 1 2 3 4 5 6 7 8 9 10 11 12 13 14 15
000
FTUS42 TJSJ 281751 AAA
TAFKPK
TAF AMD
TKPK 281751Z 2818/2918 12013KT P6SM VCSH SCT018
      TEMPO 2818/2821 -SHRA BKN012
     FM282300 06011KT P6SM VCSH SCT018 SCT035
     FM291400 11012KT P6SM VCSH SCT018 SCT035=

USA.gov is the U.S. government's official web portal to all federal, state and local government web resources and services.